createdAt,value
2023-02-17T00:01:26.498Z,8.45
2023-02-17T00:02:59.370Z,8.47
2023-02-17T00:04:32.726Z,8.48
2023-02-17T00:06:09.007Z,8.48
2023-02-17T00:07:40.879Z,8.48
2023-02-17T00:09:12.561Z,8.49
2023-02-17T00:10:44.522Z,8.50
2023-02-17T00:12:16.300Z,8.51
2023-02-17T00:13:48.130Z,8.51
2023-02-17T00:15:19.914Z,8.51
2023-02-17T00:16:51.730Z,8.54
2023-02-17T00:18:23.898Z,8.53
2023-02-17T00:19:55.927Z,8.53
2023-02-17T00:21:30.497Z,8.54
2023-02-17T00:23:02.216Z,8.55
2023-02-17T00:24:37.475Z,8.56
2023-02-17T00:26:09.548Z,8.57
2023-02-17T00:27:41.281Z,8.58
2023-02-17T00:29:14.308Z,8.57
2023-02-17T00:30:46.025Z,8.57
2023-02-17T00:32:17.726Z,8.57
2023-02-17T00:33:49.797Z,8.57
2023-02-17T00:35:21.526Z,8.59
2023-02-17T00:36:53.236Z,8.59
2023-02-17T00:38:24.970Z,8.59
2023-02-17T00:39:56.774Z,8.59
2023-02-17T00:41:29.123Z,8.59
2023-02-17T00:43:02.399Z,8.59
2023-02-17T00:44:34.131Z,8.61
2023-02-17T00:46:06.552Z,8.60
2023-02-17T00:47:38.535Z,8.61
2023-02-17T00:49:16.704Z,8.59
2023-02-17T00:50:48.775Z,8.62
2023-02-17T00:52:20.485Z,8.61
2023-02-17T00:53:52.425Z,8.61
2023-02-17T00:55:24.462Z,8.60
2023-02-17T00:56:56.403Z,8.60
2023-02-17T00:58:28.836Z,8.61
2023-02-17T01:00:00.738Z,8.61
2023-02-17T01:01:32.869Z,8.59
2023-02-17T01:03:04.890Z,8.59
2023-02-17T01:04:36.734Z,8.60
2023-02-17T01:06:11.283Z,8.59
2023-02-17T01:07:44.680Z,8.61
2023-02-17T01:09:17.515Z,8.59
2023-02-17T01:10:50.137Z,8.59
2023-02-17T01:12:22.365Z,8.58
2023-02-17T01:13:55.535Z,8.57
2023-02-17T01:15:27.259Z,8.56
2023-02-17T01:16:59.026Z,8.56
2023-02-17T01:18:33.261Z,8.57
2023-02-17T01:20:06.232Z,8.58
2023-02-17T01:21:38.120Z,8.57
2023-02-17T01:23:13.691Z,8.56
2023-02-17T01:24:45.400Z,8.57
2023-02-17T01:26:20.344Z,8.57
2023-02-17T01:27:52.354Z,8.54
2023-02-17T01:29:25.410Z,8.56
2023-02-17T01:30:57.389Z,8.58
2023-02-17T01:32:29.184Z,8.59
2023-02-17T01:34:02.748Z,8.59
2023-02-17T01:35:34.901Z,8.59
2023-02-17T01:37:06.726Z,8.60
2023-02-17T01:38:41.148Z,8.61
2023-02-17T01:40:17.581Z,8.60
2023-02-17T01:41:49.378Z,8.62
2023-02-17T01:43:21.723Z,8.63
2023-02-17T01:45:18.419Z,8.61
2023-02-17T01:46:55.271Z,8.63
2023-02-17T01:48:50.988Z,8.62
2023-02-17T01:50:26.173Z,8.67
2023-02-17T01:52:16.722Z,8.64
2023-02-17T01:54:05.922Z,8.67
2023-02-17T01:55:41.733Z,8.69
2023-02-17T01:57:17.891Z,8.70
2023-02-17T01:58:57.495Z,8.71
2023-02-17T02:00:32.311Z,8.72
2023-02-17T02:02:05.488Z,8.73
2023-02-17T02:03:39.387Z,8.74
2023-02-17T02:05:12.204Z,8.74
2023-02-17T02:06:45.057Z,8.75
2023-02-17T02:08:16.986Z,8.76
2023-02-17T02:09:54.981Z,8.76
2023-02-17T02:11:26.745Z,8.80
2023-02-17T02:13:00.190Z,8.80
2023-02-17T02:14:32.133Z,8.81
2023-02-17T02:16:18.973Z,8.79
2023-02-17T02:18:04.022Z,8.83
2023-02-17T02:20:00.468Z,8.80
2023-02-17T02:21:57.168Z,8.79
2023-02-17T02:23:29.075Z,8.85
2023-02-17T02:25:22.335Z,8.83
2023-02-17T02:27:26.217Z,8.84
2023-02-17T02:29:22.095Z,8.85
2023-02-17T02:31:12.594Z,8.83
2023-02-17T02:33:08.042Z,8.85
2023-02-17T02:34:50.597Z,8.83
2023-02-17T02:36:36.876Z,8.83
2023-02-17T02:38:17.429Z,8.83
2023-02-17T02:39:52.730Z,8.84
2023-02-17T02:41:34.068Z,8.86
2023-02-17T02:43:06.018Z,8.87
2023-02-17T02:44:38.119Z,8.86
2023-02-17T02:46:10.466Z,8.88
2023-02-17T02:47:46.797Z,8.86
2023-02-17T02:49:23.333Z,8.88
2023-02-17T02:51:09.429Z,8.87
2023-02-17T02:53:11.745Z,8.86
2023-02-17T02:54:52.754Z,8.88
2023-02-17T02:57:01.695Z,8.86
2023-02-17T02:58:50.769Z,8.83
2023-02-17T03:00:41.515Z,8.86
2023-02-17T03:02:18.207Z,8.85
2023-02-17T03:04:09.108Z,8.81
2023-02-17T03:05:59.828Z,8.82
2023-02-17T03:07:41.150Z,8.83
2023-02-17T03:09:19.675Z,8.83
2023-02-17T03:10:53.480Z,8.82
2023-02-17T03:12:26.742Z,8.84
2023-02-17T03:14:07.791Z,8.82
2023-02-17T03:15:39.767Z,8.84
2023-02-17T03:17:11.684Z,8.82
2023-02-17T03:18:43.470Z,8.83
2023-02-17T03:20:15.682Z,8.82
2023-02-17T03:21:59.274Z,8.79
2023-02-17T03:23:31.001Z,8.82
2023-02-17T03:25:03.512Z,8.83
2023-02-17T03:26:35.619Z,8.82
2023-02-17T03:28:07.564Z,8.83
2023-02-17T03:29:39.796Z,8.83
2023-02-17T03:31:11.888Z,8.82
2023-02-17T03:32:44.009Z,8.84
2023-02-17T03:34:15.752Z,8.82
2023-02-17T03:35:47.496Z,8.81
2023-02-17T03:37:19.431Z,8.81
2023-02-17T03:38:51.751Z,8.82
2023-02-17T03:40:23.526Z,8.83
2023-02-17T03:41:55.235Z,8.82
2023-02-17T03:43:27.145Z,8.84
2023-02-17T03:44:58.867Z,8.85
2023-02-17T03:46:30.826Z,8.86
2023-02-17T03:48:02.545Z,8.88
2023-02-17T03:49:34.593Z,8.88
2023-02-17T03:51:14.517Z,8.85
2023-02-17T03:52:46.560Z,8.87
2023-02-17T03:54:18.291Z,8.88
2023-02-17T03:55:50.023Z,8.89
2023-02-17T03:57:21.715Z,8.89
2023-02-17T03:58:53.491Z,8.90
2023-02-17T04:00:25.429Z,8.91
2023-02-17T04:01:57.157Z,8.90
2023-02-17T04:03:29.285Z,8.91
2023-02-17T04:05:01.023Z,8.92
2023-02-17T04:06:32.786Z,8.91
2023-02-17T04:08:04.573Z,8.91
2023-02-17T04:09:36.358Z,8.89
2023-02-17T04:11:10.228Z,8.90
2023-02-17T04:12:41.937Z,8.87
2023-02-17T04:14:13.661Z,8.83
2023-02-17T04:15:45.477Z,8.82
2023-02-17T04:17:17.211Z,8.79
2023-02-17T04:18:49.033Z,8.78
2023-02-17T04:20:20.796Z,8.74
2023-02-17T04:21:52.723Z,8.69
2023-02-17T04:23:24.560Z,8.65
2023-02-17T04:24:56.262Z,8.61
2023-02-17T04:26:28.905Z,8.55
2023-02-17T04:28:00.735Z,8.52
2023-02-17T04:29:33.775Z,8.49
2023-02-17T04:31:06.128Z,8.43
2023-02-17T04:32:38.158Z,8.40
2023-02-17T04:34:09.903Z,8.35
2023-02-17T04:35:42.179Z,8.31
2023-02-17T04:37:13.885Z,8.28
2023-02-17T04:38:45.639Z,8.24
2023-02-17T04:40:17.515Z,8.22
2023-02-17T04:41:49.193Z,8.18
2023-02-17T04:43:21.040Z,8.17
2023-02-17T04:44:52.805Z,8.16
2023-02-17T04:46:24.530Z,8.13
2023-02-17T04:47:56.384Z,8.11
2023-02-17T04:49:28.163Z,8.10
2023-02-17T04:50:59.924Z,8.08
2023-02-17T04:52:31.626Z,8.07
2023-02-17T04:54:03.493Z,8.06
2023-02-17T04:55:35.204Z,8.06
2023-02-17T04:57:07.007Z,8.05
2023-02-17T04:58:38.809Z,8.05
2023-02-17T05:00:11.240Z,8.04
2023-02-17T05:01:43.030Z,8.02
2023-02-17T05:03:14.908Z,8.03
2023-02-17T05:04:46.735Z,8.03
2023-02-17T05:06:18.428Z,8.03
2023-02-17T05:07:50.195Z,8.02
2023-02-17T05:09:21.936Z,8.03
2023-02-17T05:10:53.749Z,8.03
2023-02-17T05:12:25.468Z,8.03
2023-02-17T05:13:57.646Z,8.03
2023-02-17T05:15:29.411Z,8.04
2023-02-17T05:17:01.390Z,8.07
2023-02-17T05:18:33.219Z,8.07
2023-02-17T05:20:06.233Z,8.07
2023-02-17T05:21:38.594Z,8.09
2023-02-17T05:23:10.740Z,8.09
2023-02-17T05:24:42.482Z,8.10
2023-02-17T05:26:14.178Z,8.11
2023-02-17T05:27:45.896Z,8.13
2023-02-17T05:29:17.660Z,8.14
2023-02-17T05:30:50.581Z,8.14
2023-02-17T05:32:23.295Z,8.16
2023-02-17T05:33:55.385Z,8.15
2023-02-17T05:35:27.404Z,8.17
2023-02-17T05:36:59.390Z,8.17
2023-02-17T05:38:31.277Z,8.18
2023-02-17T05:40:03.172Z,8.20
2023-02-17T05:41:35.070Z,8.18
2023-02-17T05:43:07.488Z,8.18
2023-02-17T05:44:39.479Z,8.20
2023-02-17T05:46:11.505Z,8.21
2023-02-17T05:47:43.283Z,8.20
2023-02-17T05:49:14.969Z,8.20
2023-02-17T05:50:46.693Z,8.20
2023-02-17T05:52:18.561Z,8.20
2023-02-17T05:53:50.274Z,8.19
2023-02-17T05:55:22.781Z,8.19
2023-02-17T05:56:54.532Z,8.17
2023-02-17T05:58:27.429Z,8.17
2023-02-17T05:59:59.333Z,8.19
2023-02-17T06:01:31.067Z,8.18
2023-02-17T06:03:02.861Z,8.18
2023-02-17T06:04:34.622Z,8.20
2023-02-17T06:06:07.626Z,8.19
2023-02-17T06:07:39.473Z,8.18
2023-02-17T06:09:11.205Z,8.20
2023-02-17T06:10:43.007Z,8.21
2023-02-17T06:12:14.918Z,8.20
2023-02-17T06:13:46.722Z,8.22
2023-02-17T06:15:18.481Z,8.22
2023-02-17T06:16:50.226Z,8.23
2023-02-17T06:18:21.978Z,8.23
2023-02-17T06:19:53.713Z,8.27
2023-02-17T06:21:25.746Z,8.26
2023-02-17T06:22:57.432Z,8.27
2023-02-17T06:24:29.241Z,8.30
2023-02-17T06:26:01.005Z,8.31
2023-02-17T06:27:32.775Z,8.30
2023-02-17T06:29:06.599Z,8.32
2023-02-17T06:30:38.412Z,8.35
2023-02-17T06:32:10.268Z,8.35
2023-02-17T06:33:42.478Z,8.35
2023-02-17T06:35:14.271Z,8.36
2023-02-17T06:36:46.012Z,8.36
2023-02-17T06:38:18.515Z,8.38
2023-02-17T06:39:50.234Z,8.39
2023-02-17T06:41:21.969Z,8.40
2023-02-17T06:42:53.777Z,8.42
2023-02-17T06:44:25.692Z,8.43
2023-02-17T06:45:57.500Z,8.45
2023-02-17T06:47:29.270Z,8.46
2023-02-17T06:49:01.991Z,8.46
2023-02-17T06:50:33.716Z,8.47
2023-02-17T06:52:05.466Z,8.49
2023-02-17T06:53:37.402Z,8.50
2023-02-17T06:55:09.649Z,8.52
2023-02-17T06:56:41.632Z,8.53
2023-02-17T06:58:13.351Z,8.54
2023-02-17T06:59:45.086Z,8.56
2023-02-17T07:01:19.893Z,8.57
2023-02-17T07:02:51.720Z,8.59
2023-02-17T07:04:23.555Z,8.60
2023-02-17T07:05:59.516Z,8.60
2023-02-17T07:07:31.230Z,8.62
2023-02-17T07:09:03.122Z,8.63
2023-02-17T07:10:34.879Z,8.64
2023-02-17T07:12:07.358Z,8.67
2023-02-17T07:13:41.140Z,8.66
2023-02-17T07:15:13.203Z,8.66
2023-02-17T07:16:45.018Z,8.69
2023-02-17T07:18:16.752Z,8.70
2023-02-17T07:19:48.481Z,8.72
2023-02-17T07:21:20.290Z,8.73
2023-02-17T07:22:52.008Z,8.75
2023-02-17T07:24:23.798Z,8.75
2023-02-17T07:25:55.548Z,8.78
2023-02-17T07:27:27.292Z,8.78
2023-02-17T07:28:59.029Z,8.81
2023-02-17T07:30:30.935Z,8.82
2023-02-17T07:32:02.877Z,8.85
2023-02-17T07:33:35.009Z,8.88
2023-02-17T07:35:06.842Z,8.88
2023-02-17T07:36:38.563Z,8.91
2023-02-17T07:38:10.529Z,8.91
2023-02-17T07:39:42.233Z,8.91
2023-02-17T07:41:16.941Z,8.94
2023-02-17T07:42:48.680Z,8.96
2023-02-17T07:44:20.403Z,8.97
2023-02-17T07:45:55.301Z,8.98
2023-02-17T07:47:27.462Z,8.98
2023-02-17T07:48:59.244Z,9.01
2023-02-17T07:50:30.968Z,9.03
2023-02-17T07:52:05.138Z,9.04
2023-02-17T07:53:37.890Z,9.07
2023-02-17T07:55:09.985Z,9.08
2023-02-17T07:56:42.133Z,9.10
2023-02-17T07:58:14.074Z,9.13
2023-02-17T07:59:47.567Z,9.15
2023-02-17T08:01:22.488Z,9.17
2023-02-17T08:02:54.277Z,9.22
2023-02-17T08:04:26.029Z,9.24
2023-02-17T08:05:57.788Z,9.26
2023-02-17T08:07:29.962Z,9.30
2023-02-17T08:09:20.617Z,9.31
2023-02-17T08:11:11.174Z,9.33
2023-02-17T08:13:09.517Z,9.33
2023-02-17T08:14:44.141Z,9.36
2023-02-17T08:16:16.225Z,9.37
2023-02-17T08:17:50.964Z,9.38
2023-02-17T08:19:23.850Z,9.39
2023-02-17T08:20:55.609Z,9.41
2023-02-17T08:22:27.398Z,9.42
2023-02-17T08:23:59.356Z,9.42
2023-02-17T08:25:33.774Z,9.43
2023-02-17T08:27:06.440Z,9.41
2023-02-17T08:28:38.272Z,9.42
2023-02-17T08:30:10.538Z,9.43
2023-02-17T08:31:43.414Z,9.44
2023-02-17T08:33:18.097Z,9.44
2023-02-17T08:34:50.036Z,9.45
2023-02-17T08:36:24.803Z,9.46
2023-02-17T08:37:56.515Z,9.46
2023-02-17T08:39:28.763Z,9.48
2023-02-17T08:41:00.828Z,9.48
2023-02-17T08:42:32.944Z,9.52
2023-02-17T08:44:09.659Z,9.51
2023-02-17T08:45:41.492Z,9.52
2023-02-17T08:47:13.227Z,9.54
2023-02-17T08:48:45.805Z,9.56
2023-02-17T08:50:19.975Z,9.57
2023-02-17T08:51:52.275Z,9.57
2023-02-17T08:53:27.047Z,9.59
2023-02-17T08:54:58.745Z,9.60
2023-02-17T08:56:31.154Z,9.61
2023-02-17T08:58:02.927Z,9.63
2023-02-17T08:59:34.790Z,9.64
2023-02-17T09:01:06.518Z,9.66
2023-02-17T09:02:38.318Z,9.67
2023-02-17T09:04:11.931Z,9.69
2023-02-17T09:05:44.115Z,9.71
2023-02-17T09:07:16.823Z,9.73
2023-02-17T09:08:49.370Z,9.76
2023-02-17T09:10:21.140Z,9.78
2023-02-17T09:11:55.407Z,9.81
2023-02-17T09:13:27.553Z,9.84
2023-02-17T09:14:59.279Z,9.87
2023-02-17T09:16:31.110Z,9.90
2023-02-17T09:18:03.100Z,9.96
2023-02-17T09:19:38.626Z,9.98
2023-02-17T09:21:12.786Z,10.03
2023-02-17T09:22:44.518Z,10.08
2023-02-17T09:24:17.547Z,10.13
2023-02-17T09:25:49.350Z,10.15
2023-02-17T09:27:21.093Z,10.20
2023-02-17T09:28:52.922Z,10.24
2023-02-17T09:30:24.800Z,10.27
2023-02-17T09:31:56.827Z,10.31
2023-02-17T09:33:28.688Z,10.34
2023-02-17T09:35:01.634Z,10.39
2023-02-17T09:36:38.754Z,10.42
2023-02-17T09:38:10.509Z,10.47
2023-02-17T09:39:42.339Z,10.51
2023-02-17T09:41:24.733Z,10.55
2023-02-17T09:42:56.905Z,10.58
2023-02-17T09:44:40.879Z,10.64
2023-02-17T09:46:30.277Z,10.69
2023-02-17T09:48:08.808Z,10.73
2023-02-17T09:49:45.661Z,10.77
2023-02-17T09:51:39.671Z,10.79
2023-02-17T09:53:52.081Z,10.86
2023-02-17T09:55:28.258Z,10.96
2023-02-17T09:57:03.594Z,10.98
2023-02-17T09:58:58.355Z,10.99
2023-02-17T10:00:34.578Z,11.05
2023-02-17T10:02:12.008Z,11.10
2023-02-17T10:04:22.791Z,11.09
2023-02-17T10:06:03.761Z,11.13
2023-02-17T10:07:41.636Z,11.18
2023-02-17T10:09:26.472Z,11.20
2023-02-17T10:11:13.684Z,11.18
2023-02-17T10:12:50.421Z,11.22
2023-02-17T10:14:27.281Z,11.23
2023-02-17T10:16:05.529Z,11.24
2023-02-17T10:18:03.172Z,11.26
2023-02-17T10:19:45.043Z,11.29
2023-02-17T10:21:26.009Z,11.29
2023-02-17T10:23:04.983Z,11.31
2023-02-17T10:24:36.903Z,11.33
2023-02-17T10:26:46.209Z,11.37
2023-02-17T10:28:25.011Z,11.44
2023-02-17T10:30:10.168Z,11.49
2023-02-17T10:32:05.766Z,11.53
2023-02-17T10:33:46.525Z,11.65
2023-02-17T10:35:24.568Z,11.70
2023-02-17T10:37:00.519Z,11.73
2023-02-17T10:38:53.098Z,11.75
2023-02-17T10:40:27.970Z,11.84
2023-02-17T10:42:00.605Z,11.89
2023-02-17T10:43:33.718Z,11.92
2023-02-17T10:45:13.372Z,11.95
2023-02-17T10:46:48.615Z,11.98
2023-02-17T10:48:24.823Z,12.01
2023-02-17T10:49:58.510Z,12.04
2023-02-17T10:51:31.718Z,12.07
2023-02-17T10:53:14.383Z,12.06
2023-02-17T10:55:01.944Z,12.10
2023-02-17T10:56:48.171Z,12.11
2023-02-17T10:58:27.484Z,12.14
2023-02-17T10:59:59.223Z,12.14
2023-02-17T11:01:30.996Z,12.13
2023-02-17T11:03:02.754Z,12.10
2023-02-17T11:04:45.084Z,12.07
2023-02-17T11:06:23.683Z,12.04
2023-02-17T11:08:02.780Z,12.02
2023-02-17T11:09:34.727Z,11.99
2023-02-17T11:11:14.449Z,11.96
2023-02-17T11:12:47.128Z,11.91
2023-02-17T11:14:27.573Z,11.85
2023-02-17T11:16:00.263Z,11.79
2023-02-17T11:17:38.969Z,11.75
2023-02-17T11:19:27.598Z,11.66
2023-02-17T11:21:08.891Z,11.65
2023-02-17T11:22:59.461Z,11.61
2023-02-17T11:24:34.185Z,11.58
2023-02-17T11:26:11.479Z,11.51
2023-02-17T11:27:51.079Z,11.46
2023-02-17T11:29:24.015Z,11.45
2023-02-17T11:31:00.263Z,11.40
2023-02-17T11:32:32.963Z,11.35
2023-02-17T11:34:15.932Z,11.36
2023-02-17T11:35:54.338Z,11.33
2023-02-17T11:37:28.307Z,11.32
2023-02-17T11:39:01.023Z,11.32
2023-02-17T11:40:33.300Z,11.32
2023-02-17T11:42:29.255Z,11.27
2023-02-17T11:44:01.112Z,11.31
2023-02-17T11:45:49.703Z,11.28
2023-02-17T11:47:30.016Z,11.30
2023-02-17T11:49:29.746Z,11.32
2023-02-17T11:51:15.708Z,11.35
2023-02-17T11:53:03.477Z,11.39
2023-02-17T11:55:10.490Z,11.44
2023-02-17T11:56:52.977Z,11.54
2023-02-17T11:58:27.641Z,11.60
2023-02-17T12:00:17.826Z,11.62
2023-02-17T12:02:09.883Z,11.69
2023-02-17T12:03:53.351Z,11.72
2023-02-17T12:05:43.690Z,11.74
2023-02-17T12:07:31.537Z,11.84
2023-02-17T12:09:47.687Z,11.86
2023-02-17T12:11:30.847Z,11.92
2023-02-17T12:13:21.545Z,11.93
2023-02-17T12:15:03.060Z,11.93
2023-02-17T12:16:48.254Z,11.95
2023-02-17T12:18:22.796Z,11.99
2023-02-17T12:20:16.824Z,12.00
2023-02-17T12:22:04.727Z,12.05
2023-02-17T12:24:01.591Z,12.02
2023-02-17T12:25:41.709Z,12.09
2023-02-17T12:27:27.246Z,12.13
2023-02-17T12:29:05.785Z,12.16
2023-02-17T12:30:55.911Z,12.20
2023-02-17T12:32:27.703Z,12.21
2023-02-17T12:34:32.433Z,12.26
2023-02-17T12:36:13.428Z,12.32
2023-02-17T12:37:57.433Z,12.37
2023-02-17T12:39:38.475Z,12.41
2023-02-17T12:41:30.631Z,12.46
2023-02-17T12:43:17.599Z,12.52
2023-02-17T12:45:06.116Z,12.58
2023-02-17T12:46:46.413Z,12.62
2023-02-17T12:48:31.397Z,12.67
2023-02-17T12:50:19.492Z,12.73
2023-02-17T12:51:57.841Z,12.81
2023-02-17T12:54:00.717Z,12.80
2023-02-17T12:55:48.910Z,12.84
2023-02-17T12:57:34.555Z,12.88
2023-02-17T12:59:14.952Z,12.92
2023-02-17T13:00:50.648Z,12.96
2023-02-17T13:02:24.744Z,13.00
2023-02-17T13:03:59.950Z,13.04
2023-02-17T13:05:51.882Z,13.03
2023-02-17T13:07:41.921Z,13.12
2023-02-17T13:09:25.089Z,13.10
2023-02-17T13:11:06.123Z,13.14
2023-02-17T13:12:41.177Z,13.16
2023-02-17T13:14:40.642Z,13.18
2023-02-17T13:16:14.090Z,13.25
2023-02-17T13:17:55.663Z,13.26
2023-02-17T13:19:29.907Z,13.32
2023-02-17T13:21:20.569Z,13.29
2023-02-17T13:23:04.629Z,13.34
2023-02-17T13:24:52.725Z,13.37
2023-02-17T13:26:31.197Z,13.42
2023-02-17T13:28:15.771Z,13.46
2023-02-17T13:29:58.225Z,13.51
2023-02-17T13:31:30.209Z,13.55
2023-02-17T13:33:20.258Z,13.55
2023-02-17T13:35:05.977Z,13.59
2023-02-17T13:36:37.939Z,13.62
2023-02-17T13:38:10.453Z,13.61
2023-02-17T13:39:42.754Z,13.62
2023-02-17T13:41:14.574Z,13.62
2023-02-17T13:42:48.449Z,13.62
2023-02-17T13:44:38.817Z,13.59
2023-02-17T13:46:26.695Z,13.54
2023-02-17T13:48:10.822Z,13.54
2023-02-17T13:49:42.750Z,13.50
2023-02-17T13:51:29.149Z,13.42
2023-02-17T13:53:02.872Z,13.40
2023-02-17T13:54:34.675Z,13.39
2023-02-17T13:56:10.198Z,13.35
2023-02-17T13:57:43.520Z,13.35
2023-02-17T13:59:20.273Z,13.32
2023-02-17T14:00:53.411Z,13.32
2023-02-17T14:02:35.861Z,13.29
2023-02-17T14:04:20.081Z,13.26
2023-02-17T14:06:03.125Z,13.27
2023-02-17T14:07:36.394Z,13.30
2023-02-17T14:09:25.219Z,13.25
2023-02-17T14:10:57.686Z,13.26
2023-02-17T14:12:29.969Z,13.23
2023-02-17T14:14:03.054Z,13.23
2023-02-17T14:15:34.839Z,13.24
2023-02-17T14:17:27.766Z,13.21
2023-02-17T14:19:08.550Z,13.18
2023-02-17T14:20:41.500Z,13.22
2023-02-17T14:22:30.177Z,13.21
2023-02-17T14:24:02.636Z,13.22
2023-02-17T14:25:37.603Z,13.20
2023-02-17T14:27:14.433Z,13.20
2023-02-17T14:28:56.216Z,13.17
2023-02-17T14:30:35.603Z,13.19
2023-02-17T14:32:08.109Z,13.18
2023-02-17T14:33:39.869Z,13.17
2023-02-17T14:35:14.616Z,13.18
2023-02-17T14:36:47.308Z,13.19
2023-02-17T14:38:22.096Z,13.16
2023-02-17T14:39:53.797Z,13.15
2023-02-17T14:41:26.472Z,13.16
2023-02-17T14:42:58.359Z,13.16
2023-02-17T14:44:31.282Z,13.14
2023-02-17T14:46:03.462Z,13.14
2023-02-17T14:47:35.224Z,13.12
2023-02-17T14:49:06.926Z,13.12
2023-02-17T14:50:44.966Z,13.12
2023-02-17T14:52:22.254Z,13.12
2023-02-17T14:53:54.255Z,13.12
2023-02-17T14:55:36.633Z,13.09
2023-02-17T14:57:14.410Z,13.12
2023-02-17T14:58:46.631Z,13.12
2023-02-17T15:00:18.532Z,13.13
2023-02-17T15:01:50.315Z,13.15
2023-02-17T15:03:22.622Z,13.15
2023-02-17T15:04:54.367Z,13.14
2023-02-17T15:06:32.553Z,13.15
2023-02-17T15:08:04.661Z,13.16
2023-02-17T15:09:36.399Z,13.20
2023-02-17T15:11:17.822Z,13.20
2023-02-17T15:12:49.458Z,13.22
2023-02-17T15:14:21.365Z,13.31
2023-02-17T15:15:53.515Z,13.33
2023-02-17T15:17:25.222Z,13.32
2023-02-17T15:18:57.198Z,13.35
2023-02-17T15:20:28.899Z,13.34
2023-02-17T15:22:03.885Z,13.35
2023-02-17T15:23:35.745Z,13.36
2023-02-17T15:25:16.620Z,13.34
2023-02-17T15:26:48.455Z,13.35
2023-02-17T15:28:21.004Z,13.35
2023-02-17T15:29:52.797Z,13.31
2023-02-17T15:31:25.637Z,13.29
2023-02-17T15:32:57.724Z,13.25
2023-02-17T15:34:35.046Z,13.21
2023-02-17T15:36:07.208Z,13.19
2023-02-17T15:37:39.110Z,13.17
2023-02-17T15:39:13.418Z,13.14
2023-02-17T15:40:45.414Z,13.12
2023-02-17T15:42:17.947Z,13.07
2023-02-17T15:43:50.105Z,13.04
2023-02-17T15:45:22.899Z,13.01
2023-02-17T15:46:55.751Z,12.98
2023-02-17T15:48:30.252Z,12.94
2023-02-17T15:50:02.024Z,12.90
2023-02-17T15:51:33.810Z,12.86
2023-02-17T15:53:05.741Z,12.84
2023-02-17T15:54:37.433Z,12.82
2023-02-17T15:56:12.928Z,12.75
2023-02-17T15:57:51.429Z,12.72
2023-02-17T15:59:26.765Z,12.68
2023-02-17T16:01:01.653Z,12.66
2023-02-17T16:02:33.423Z,12.63
2023-02-17T16:04:06.740Z,12.58
2023-02-17T16:05:38.495Z,12.57
2023-02-17T16:07:10.454Z,12.55
2023-02-17T16:08:42.165Z,12.53
2023-02-17T16:10:17.293Z,12.51
2023-02-17T16:11:54.450Z,12.47
2023-02-17T16:13:27.645Z,12.46
2023-02-17T16:14:59.390Z,12.42
2023-02-17T16:16:33.634Z,12.42
2023-02-17T16:18:05.474Z,12.37
2023-02-17T16:19:37.148Z,12.36
2023-02-17T16:21:11.609Z,12.31
2023-02-17T16:22:44.997Z,12.32
2023-02-17T16:24:16.986Z,12.25
2023-02-17T16:25:50.401Z,12.24
2023-02-17T16:27:24.107Z,12.21
2023-02-17T16:28:56.181Z,12.18
2023-02-17T16:30:34.170Z,12.15
2023-02-17T16:32:06.221Z,12.14
2023-02-17T16:33:38.105Z,12.12
2023-02-17T16:35:14.319Z,12.11
2023-02-17T16:36:46.046Z,12.10
2023-02-17T16:38:23.038Z,12.11
2023-02-17T16:39:55.187Z,12.08
2023-02-17T16:41:27.256Z,12.10
2023-02-17T16:42:59.971Z,12.08
2023-02-17T16:44:31.898Z,12.09
2023-02-17T16:46:05.626Z,12.11
2023-02-17T16:47:37.702Z,12.11
2023-02-17T16:49:28.326Z,12.09
2023-02-17T16:51:00.096Z,12.09
2023-02-17T16:52:32.088Z,12.09
2023-02-17T16:54:03.940Z,12.08
2023-02-17T16:55:36.789Z,12.05
2023-02-17T16:57:18.494Z,11.99
2023-02-17T16:58:50.355Z,12.01
2023-02-17T17:00:25.534Z,11.98
2023-02-17T17:01:57.708Z,11.97
2023-02-17T17:03:29.466Z,11.96
2023-02-17T17:05:01.148Z,11.95
2023-02-17T17:06:33.600Z,11.95
2023-02-17T17:08:07.259Z,11.94
2023-02-17T17:09:38.966Z,11.94
2023-02-17T17:11:23.273Z,11.94
2023-02-17T17:12:55.548Z,11.97
2023-02-17T17:14:27.394Z,11.99
2023-02-17T17:15:59.412Z,12.00
2023-02-17T17:17:37.326Z,12.03
2023-02-17T17:19:14.318Z,12.06
2023-02-17T17:20:46.871Z,12.08
2023-02-17T17:22:18.584Z,12.10
2023-02-17T17:23:53.220Z,12.11
2023-02-17T17:25:25.753Z,12.15
2023-02-17T17:26:57.545Z,12.18
2023-02-17T17:28:29.557Z,12.20
2023-02-17T17:30:01.486Z,12.23
2023-02-17T17:31:33.776Z,12.26
2023-02-17T17:33:05.714Z,12.27
2023-02-17T17:34:38.399Z,12.34
2023-02-17T17:36:21.887Z,12.37
2023-02-17T17:37:54.139Z,12.39
2023-02-17T17:39:25.878Z,12.43
2023-02-17T17:40:57.586Z,12.44
2023-02-17T17:42:29.321Z,12.47
2023-02-17T17:44:01.091Z,12.51
2023-02-17T17:45:32.868Z,12.53
2023-02-17T17:47:04.604Z,12.53
2023-02-17T17:48:36.291Z,12.56
2023-02-17T17:50:13.482Z,12.56
2023-02-17T17:51:45.603Z,12.58
2023-02-17T17:53:17.431Z,12.60
2023-02-17T17:54:49.181Z,12.61
2023-02-17T17:56:24.720Z,12.64
2023-02-17T17:57:56.404Z,12.64
2023-02-17T17:59:28.114Z,12.66
2023-02-17T18:01:01.078Z,12.67
2023-02-17T18:02:33.025Z,12.67
2023-02-17T18:04:05.232Z,12.68
2023-02-17T18:05:37.190Z,12.69
2023-02-17T18:07:09.209Z,12.65
2023-02-17T18:08:42.367Z,12.61
2023-02-17T18:10:14.798Z,12.54
2023-02-17T18:11:46.619Z,12.46
2023-02-17T18:13:18.403Z,12.36
2023-02-17T18:14:53.363Z,12.21
2023-02-17T18:16:27.078Z,12.07
2023-02-17T18:17:58.777Z,11.94
2023-02-17T18:19:32.155Z,11.82
2023-02-17T18:21:04.200Z,11.67
2023-02-17T18:22:36.053Z,11.55
2023-02-17T18:24:07.915Z,11.43
2023-02-17T18:25:39.676Z,11.30
2023-02-17T18:27:11.451Z,11.22
2023-02-17T18:28:43.329Z,11.10
2023-02-17T18:30:19.132Z,11.01
2023-02-17T18:31:51.072Z,10.92
2023-02-17T18:33:23.510Z,10.85
2023-02-17T18:34:58.605Z,10.78
2023-02-17T18:36:30.779Z,10.70
2023-02-17T18:38:02.986Z,10.67
2023-02-17T18:39:34.719Z,10.60
2023-02-17T18:41:07.032Z,10.55
2023-02-17T18:42:40.636Z,10.51
2023-02-17T18:44:13.768Z,10.48
2023-02-17T18:45:48.180Z,10.44
2023-02-17T18:47:20.251Z,10.41
2023-02-17T18:48:52.044Z,10.35
2023-02-17T18:50:23.933Z,10.32
2023-02-17T18:51:55.734Z,10.29
2023-02-17T18:53:27.574Z,10.28
2023-02-17T18:54:59.883Z,10.25
2023-02-17T18:56:34.005Z,10.23
2023-02-17T18:58:05.724Z,10.20
2023-02-17T18:59:37.618Z,10.22
2023-02-17T19:01:21.430Z,10.19
2023-02-17T19:02:53.487Z,10.19
2023-02-17T19:04:32.869Z,10.20
2023-02-17T19:06:13.074Z,10.18
2023-02-17T19:07:44.910Z,10.19
2023-02-17T19:09:16.633Z,10.19
2023-02-17T19:10:48.375Z,10.20
2023-02-17T19:12:20.251Z,10.18
2023-02-17T19:13:52.346Z,10.21
2023-02-17T19:15:24.106Z,10.23
2023-02-17T19:16:55.957Z,10.23
2023-02-17T19:18:27.705Z,10.24
2023-02-17T19:20:00.624Z,10.28
2023-02-17T19:21:33.177Z,10.27
2023-02-17T19:23:06.248Z,10.28
2023-02-17T19:24:39.736Z,10.32
2023-02-17T19:26:13.105Z,10.31
2023-02-17T19:27:44.853Z,10.32
2023-02-17T19:29:16.549Z,10.33
2023-02-17T19:30:48.372Z,10.33
2023-02-17T19:32:20.296Z,10.34
2023-02-17T19:33:52.028Z,10.33
2023-02-17T19:35:23.722Z,10.35
2023-02-17T19:36:55.961Z,10.36
2023-02-17T19:38:29.706Z,10.36
2023-02-17T19:40:01.485Z,10.38
2023-02-17T19:41:35.693Z,10.38
2023-02-17T19:43:07.701Z,10.38
2023-02-17T19:44:39.410Z,10.40
2023-02-17T19:46:15.509Z,10.40
2023-02-17T19:47:47.219Z,10.43
2023-02-17T19:49:18.972Z,10.43
2023-02-17T19:51:02.790Z,10.42
2023-02-17T19:52:36.969Z,10.47
2023-02-17T19:54:08.725Z,10.50
2023-02-17T19:55:40.410Z,10.48
2023-02-17T19:57:14.573Z,10.47
2023-02-17T19:58:47.396Z,10.51
2023-02-17T20:00:19.606Z,10.53
2023-02-17T20:01:51.386Z,10.53
2023-02-17T20:03:23.109Z,10.53
2023-02-17T20:04:54.993Z,10.55
2023-02-17T20:06:30.103Z,10.54
2023-02-17T20:08:01.908Z,10.57
2023-02-17T20:09:33.652Z,10.59
2023-02-17T20:11:07.958Z,10.61
2023-02-17T20:12:39.811Z,10.62
2023-02-17T20:14:11.549Z,10.62
2023-02-17T20:15:43.557Z,10.63
2023-02-17T20:17:16.023Z,10.64
2023-02-17T20:18:49.650Z,10.67
2023-02-17T20:20:21.429Z,10.67
2023-02-17T20:21:53.395Z,10.67
2023-02-17T20:23:25.199Z,10.68
2023-02-17T20:24:57.080Z,10.69
2023-02-17T20:26:31.743Z,10.71
2023-02-17T20:28:03.493Z,10.72
2023-02-17T20:29:36.376Z,10.72
2023-02-17T20:31:09.188Z,10.75
2023-02-17T20:32:41.073Z,10.76
2023-02-17T20:34:25.900Z,10.71
2023-02-17T20:35:57.604Z,10.74
2023-02-17T20:37:29.319Z,10.74
2023-02-17T20:39:01.708Z,10.74
2023-02-17T20:40:33.933Z,10.71
2023-02-17T20:42:06.174Z,10.71
2023-02-17T20:43:38.644Z,10.69
2023-02-17T20:45:10.510Z,10.68
2023-02-17T20:46:43.031Z,10.66
2023-02-17T20:48:14.888Z,10.63
2023-02-17T20:49:46.754Z,10.62